Time;durP1;ratioP1;P1;durP2;ratioP2;P2;SDS_P1;SDS_P2;PMS_P1;PMS_P2;Temp;Humidity;BMP_temperature;BMP_pressure;BME280_temperature;BME280_humidity;BME280_pressure;Samples;Min_cycle;Max_cycle;Signal;HPM_P1;HPM_P2
2020/12/02 00:01:31;;;;;;;20.33;18.03;;;6.90;99.90;;;;;;5131056;28;20630;-65
2020/12/02 00:04:05;;;;;;;21.43;17.47;;;6.90;99.90;;;;;;5131074;27;20164;-65
2020/12/02 00:06:32;;;;;;;21.63;19.47;;;7.00;99.90;;;;;;5130970;27;20375;-65
2020/12/02 00:09:01;;;;;;;21.60;19.40;;;6.90;99.90;;;;;;5113890;27;20455;-66
2020/12/02 00:11:28;;;;;;;21.63;19.33;;;6.90;99.90;;;;;;5110594;28;20437;-65
2020/12/02 00:13:57;;;;;;;20.93;18.70;;;6.90;99.90;;;;;;5123315;28;20771;-65
2020/12/02 00:16:26;;;;;;;22.27;19.23;;;7.00;99.90;;;;;;5130666;27;20625;-65
2020/12/02 00:18:53;;;;;;;21.23;17.77;;;7.00;99.90;;;;;;5130674;27;20546;-65
2020/12/02 00:21:20;;;;;;;21.23;18.53;;;7.00;99.90;;;;;;5130611;27;20427;-65
2020/12/02 00:23:47;;;;;;;21.80;19.30;;;7.00;99.90;;;;;;5130877;27;20433;-65
2020/12/02 00:26:15;;;;;;;22.33;19.93;;;7.00;99.90;;;;;;5111846;27;20413;-65
2020/12/02 00:28:41;;;;;;;23.10;20.20;;;7.00;99.90;;;;;;5120652;28;20466;-65
2020/12/02 00:31:07;;;;;;;21.90;19.60;;;7.00;99.90;;;;;;5130586;27;20481;-65
2020/12/02 00:33:32;;;;;;;20.60;18.50;;;7.00;99.90;;;;;;5130381;27;20540;-65
2020/12/02 00:35:58;;;;;;;21.47;19.17;;;7.00;99.90;;;;;;5128384;27;20630;-66
2020/12/02 00:38:24;;;;;;;22.63;18.10;;;7.00;99.90;;;;;;5110274;28;20184;-65
2020/12/02 00:40:51;;;;;;;21.60;18.47;;;7.00;99.90;;;;;;5109802;28;20527;-65
2020/12/02 00:43:21;;;;;;;21.73;18.30;;;7.00;99.90;;;;;;5115702;28;20520;-65
2020/12/02 00:45:48;;;;;;;21.87;19.03;;;7.00;99.90;;;;;;5109751;28;20878;-65
2020/12/02 00:48:17;;;;;;;23.47;19.33;;;7.00;99.90;;;;;;5108325;28;20973;-65
2020/12/02 00:50:43;;;;;;;21.43;19.03;;;7.00;99.90;;;;;;5109556;28;20777;-65
2020/12/02 00:53:12;;;;;;;19.60;17.50;;;7.10;99.90;;;;;;5109735;28;20405;-65
2020/12/02 00:55:38;;;;;;;22.80;20.30;;;7.10;99.90;;;;;;5108243;28;20666;-65
2020/12/02 00:58:08;;;;;;;24.70;18.30;;;7.10;99.90;;;;;;5109993;28;20393;-65
2020/12/02 01:00:38;;;;;;;21.60;19.33;;;7.10;99.90;;;;;;5115933;27;20460;-65
2020/12/02 01:05:40;;;;;;;19.57;17.67;;;7.10;99.90;;;;;;5110954;27;21001;-64
2020/12/02 01:11:05;;;;;;;19.10;17.20;;;7.10;99.90;;;;;;5110753;27;20558;-65
2020/12/02 01:13:33;;;;;;;20.83;18.40;;;7.10;99.90;;;;;;5095496;28;20408;-65
2020/12/02 01:16:00;;;;;;;20.13;18.10;;;7.10;99.90;;;;;;5098694;28;20409;-65
2020/12/02 01:18:26;;;;;;;17.97;16.07;;;7.10;99.90;;;;;;5109632;28;20478;-65
2020/12/02 01:21:00;;;;;;;20.47;17.97;;;7.10;99.90;;;;;;5109361;28;20450;-65
2020/12/02 01:23:25;;;;;;;18.90;16.90;;;7.10;99.90;;;;;;5110518;28;20182;-65
2020/12/02 01:25:52;;;;;;;19.07;16.93;;;7.10;99.90;;;;;;5110660;28;20413;-65
2020/12/02 01:28:23;;;;;;;20.03;17.93;;;7.20;99.90;;;;;;5110474;28;20165;-65
2020/12/02 01:30:49;;;;;;;19.40;17.40;;;7.20;99.90;;;;;;5110272;28;20456;-65
2020/12/02 01:33:17;;;;;;;20.07;17.23;;;7.20;99.90;;;;;;5109795;28;20410;-65
2020/12/02 01:35:45;;;;;;;19.60;17.53;;;7.20;99.90;;;;;;5109414;28;20252;-65
2020/12/02 01:38:13;;;;;;;18.90;16.90;;;7.20;99.90;;;;;;5092514;28;20494;-65
2020/12/02 01:40:38;;;;;;;19.33;17.33;;;7.20;99.90;;;;;;5109063;28;20395;-65
2020/12/02 01:43:08;;;;;;;18.07;16.27;;;7.20;99.90;;;;;;5100231;28;20515;-65
2020/12/02 01:45:44;;;;;;;20.70;16.70;;;7.20;99.90;;;;;;5089973;28;20252;-65
2020/12/02 01:48:44;;;;;;;20.10;17.50;;;7.20;99.90;;;;;;5088664;28;20450;-65
2020/12/02 01:51:38;;;;;;;19.53;17.03;;;7.10;99.90;;;;;;5098634;28;20474;-65
2020/12/02 01:54:17;;;;;;;21.20;16.33;;;7.10;99.90;;;;;;5088776;28;20935;-65
2020/12/02 01:56:52;;;;;;;18.30;16.23;;;7.10;99.90;;;;;;5089589;28;20417;-65
2020/12/02 02:04:51;;;;;;;21.47;16.87;;;7.20;99.90;;;;;;5131259;27;20508;-65
2020/12/02 02:07:23;;;;;;;19.57;17.17;;;7.10;99.90;;;;;;5120500;27;20421;-64
2020/12/02 02:09:57;;;;;;;22.73;17.90;;;7.10;99.90;;;;;;5111004;28;20471;-65
2020/12/02 02:12:55;;;;;;;22.57;18.20;;;7.10;99.90;;;;;;5114730;28;20525;-65
2020/12/02 02:15:50;;;;;;;21.67;16.80;;;7.10;99.90;;;;;;5130136;28;20392;-65
2020/12/02 02:20:57;;;;;;;23.00;17.67;;;7.10;99.90;;;;;;5125748;27;20539;-65
2020/12/02 02:23:23;;;;;;;22.40;18.57;;;7.20;99.90;;;;;;5107634;28;20469;-65
2020/12/02 02:29:01;;;;;;;28.03;20.63;;;7.20;99.90;;;;;;5109198;27;20515;-65
2020/12/02 02:31:29;;;;;;;26.80;18.50;;;7.20;99.90;;;;;;5110867;28;20707;-65
2020/12/02 02:33:56;;;;;;;23.37;17.60;;;7.10;99.90;;;;;;5110686;28;20414;-65
2020/12/02 02:36:26;;;;;;;22.70;17.93;;;7.10;99.90;;;;;;5110482;28;20405;-65
2020/12/02 02:38:53;;;;;;;21.00;17.77;;;7.10;99.90;;;;;;5110564;28;20473;-65
2020/12/02 02:41:20;;;;;;;24.83;19.37;;;7.10;99.90;;;;;;5087789;28;20974;-65
2020/12/02 02:43:46;;;;;;;33.10;19.63;;;7.10;99.90;;;;;;5087387;28;20410;-65
2020/12/02 02:46:11;;;;;;;21.40;17.57;;;7.00;99.90;;;;;;5089021;28;20378;-65
2020/12/02 02:48:38;;;;;;;25.63;18.83;;;7.10;99.90;;;;;;5090042;28;20544;-65
2020/12/02 02:51:04;;;;;;;23.17;18.83;;;7.10;99.90;;;;;;5090253;28;20188;-65
2020/12/02 02:53:30;;;;;;;24.67;18.20;;;7.00;99.90;;;;;;5090183;28;20747;-65
2020/12/02 02:55:56;;;;;;;22.83;19.10;;;7.00;99.90;;;;;;5089954;28;20382;-65
2020/12/02 02:58:25;;;;;;;24.40;19.03;;;7.00;99.90;;;;;;5077226;28;20199;-65
2020/12/02 03:00:52;;;;;;;25.47;19.53;;;7.10;99.90;;;;;;5069651;28;20394;-65
2020/12/02 03:03:19;;;;;;;23.60;18.77;;;7.00;99.90;;;;;;5069646;28;20450;-65
2020/12/02 03:05:44;;;;;;;25.93;19.67;;;7.00;99.90;;;;;;5069597;28;20478;-65
2020/12/02 03:08:11;;;;;;;27.03;22.30;;;7.00;99.90;;;;;;5069423;28;20478;-65
2020/12/02 03:10:40;;;;;;;30.47;23.00;;;7.00;99.90;;;;;;5069500;28;20164;-65
2020/12/02 03:13:17;;;;;;;29.33;21.97;;;7.00;99.90;;;;;;5092872;28;20417;-65
2020/12/02 03:15:43;;;;;;;30.00;22.10;;;7.00;99.90;;;;;;5083779;28;20446;-65
2020/12/02 03:18:08;;;;;;;25.87;21.30;;;6.90;99.90;;;;;;5089552;28;20435;-66
2020/12/02 03:20:39;;;;;;;31.17;22.43;;;6.90;99.90;;;;;;5091800;28;20621;-65
2020/12/02 03:23:10;;;;;;;26.87;21.20;;;6.90;99.90;;;;;;5109856;28;20177;-65
2020/12/02 03:25:38;;;;;;;31.00;21.27;;;6.90;99.90;;;;;;5109812;28;20387;-65
2020/12/02 03:28:03;;;;;;;27.80;21.37;;;6.90;99.90;;;;;;5109648;28;20923;-65
2020/12/02 03:30:29;;;;;;;35.90;23.43;;;6.90;99.90;;;;;;5109513;28;20527;-65
2020/12/02 03:32:55;;;;;;;29.83;22.57;;;6.90;99.90;;;;;;5076389;28;20214;-65
2020/12/02 03:35:21;;;;;;;26.90;21.20;;;6.90;99.90;;;;;;5068956;28;20174;-65
2020/12/02 03:37:46;;;;;;;25.10;20.27;;;6.90;99.90;;;;;;5068826;28;20186;-65
2020/12/02 03:40:12;;;;;;;22.93;17.87;;;6.90;99.90;;;;;;5055482;28;20223;-65
2020/12/02 03:42:38;;;;;;;22.80;18.60;;;7.00;99.90;;;;;;5055967;28;20186;-65
2020/12/02 03:45:07;;;;;;;22.67;18.27;;;7.00;99.90;;;;;;5055309;28;20436;-65
2020/12/02 03:47:32;;;;;;;20.90;18.67;;;6.90;99.90;;;;;;5054443;28;20221;-65
2020/12/02 03:49:58;;;;;;;23.37;19.07;;;6.90;99.90;;;;;;5071851;28;20415;-65
2020/12/02 03:52:24;;;;;;;21.80;18.80;;;6.90;99.90;;;;;;5092730;28;20172;-65
2020/12/02 03:54:49;;;;;;;19.17;17.17;;;6.90;99.90;;;;;;5095662;28;20202;-65
2020/12/02 03:57:15;;;;;;;23.03;18.67;;;6.90;99.90;;;;;;5096164;28;20160;-65
2020/12/02 03:59:40;;;;;;;21.13;17.87;;;6.90;99.90;;;;;;5095952;28;20621;-65
2020/12/02 04:02:06;;;;;;;21.10;16.80;;;6.90;99.90;;;;;;5095573;28;20162;-65
2020/12/02 04:04:31;;;;;;;18.40;16.50;;;6.90;99.90;;;;;;5095389;28;20170;-65
2020/12/02 04:06:57;;;;;;;18.13;16.23;;;6.90;99.90;;;;;;5062340;28;20617;-65
2020/12/02 04:09:22;;;;;;;16.10;14.50;;;6.90;99.90;;;;;;5054974;28;20157;-65
2020/12/02 04:11:48;;;;;;;16.07;14.43;;;6.80;99.90;;;;;;5054074;28;20215;-65
2020/12/02 04:14:14;;;;;;;16.60;14.17;;;6.80;99.90;;;;;;5074688;28;20176;-65
2020/12/02 04:16:39;;;;;;;12.70;11.40;;;6.80;99.90;;;;;;5075159;28;20166;-65
2020/12/02 04:19:05;;;;;;;15.23;12.43;;;6.70;99.90;;;;;;5074975;28;20627;-65
2020/12/02 04:21:31;;;;;;;11.53;10.33;;;6.70;99.90;;;;;;5074774;28;20556;-65
2020/12/02 04:23:57;;;;;;;12.63;11.33;;;6.60;99.90;;;;;;5058460;28;20186;-65
2020/12/02 04:26:25;;;;;;;13.57;11.90;;;6.60;99.90;;;;;;5054782;28;20963;-65
2020/12/02 04:28:51;;;;;;;13.70;12.30;;;6.60;99.90;;;;;;5053483;28;20427;-65
2020/12/02 04:31:17;;;;;;;13.00;11.70;;;6.70;99.90;;;;;;5053406;28;20427;-65
2020/12/02 04:33:43;;;;;;;13.10;11.80;;;6.60;99.90;;;;;;5054815;28;20885;-65
2020/12/02 04:36:09;;;;;;;12.20;11.00;;;6.60;99.90;;;;;;5054508;28;20154;-65
2020/12/02 04:38:34;;;;;;;16.27;13.10;;;6.60;99.90;;;;;;5054458;28;20622;-65
2020/12/02 04:41:03;;;;;;;14.27;12.10;;;6.60;99.90;;;;;;5055252;28;20406;-65
2020/12/02 04:43:35;;;;;;;14.80;12.00;;;6.60;99.90;;;;;;5082602;28;20171;-65
2020/12/02 04:46:08;;;;;;;14.43;12.67;;;6.60;99.90;;;;;;5094556;28;20394;-65
2020/12/02 04:48:34;;;;;;;13.73;12.10;;;6.60;99.90;;;;;;5094732;28;20536;-65
2020/12/02 04:51:03;;;;;;;13.53;10.43;;;6.60;99.90;;;;;;5093498;28;20435;-65
2020/12/02 04:53:28;;;;;;;11.67;10.47;;;6.60;99.90;;;;;;5093169;28;20879;-64
2020/12/02 04:55:56;;;;;;;13.43;11.67;;;6.50;99.90;;;;;;5094755;28;20464;-64
2020/12/02 05:01:18;;;;;;;12.03;10.13;;;6.50;99.90;;;;;;5131379;27;20517;-64
2020/12/02 05:03:49;;;;;;;10.67;9.60;;;6.60;99.90;;;;;;5131376;27;20730;-64
2020/12/02 05:06:22;;;;;;;11.53;10.33;;;6.60;99.90;;;;;;5130213;28;20889;-64
2020/12/02 05:08:48;;;;;;;10.70;9.50;;;6.60;99.90;;;;;;5131544;27;20456;-64
2020/12/02 05:11:13;;;;;;;14.87;11.13;;;6.60;99.90;;;;;;5130429;28;20503;-66
2020/12/02 05:13:39;;;;;;;10.50;9.37;;;6.60;99.90;;;;;;5125155;28;20489;-63
2020/12/02 05:16:10;;;;;;;10.40;9.30;;;6.70;99.90;;;;;;5110845;28;20274;-65
2020/12/02 05:18:36;;;;;;;10.30;8.93;;;6.70;99.90;;;;;;5109123;28;20170;-64
2020/12/02 05:21:18;;;;;;;11.60;10.50;;;6.70;99.90;;;;;;5110874;28;20422;-64
2020/12/02 05:24:01;;;;;;;12.50;11.27;;;6.70;99.90;;;;;;5111006;28;20157;-64
2020/12/02 05:26:28;;;;;;;13.67;12.07;;;6.70;99.90;;;;;;5110642;28;20393;-64
2020/12/02 05:28:54;;;;;;;12.90;11.40;;;6.80;99.90;;;;;;5110457;28;20397;-64
2020/12/02 05:31:23;;;;;;;17.33;12.90;;;6.80;99.90;;;;;;5110817;28;20425;-64
2020/12/02 05:33:49;;;;;;;13.90;12.50;;;6.80;99.90;;;;;;5110314;28;20186;-64
2020/12/02 05:38:57;;;;;;;15.10;12.70;;;6.80;99.90;;;;;;5090628;28;20535;-64
2020/12/02 05:41:25;;;;;;;17.00;13.27;;;6.80;99.90;;;;;;5090152;28;20869;-64
2020/12/02 05:44:16;;;;;;;14.83;13.07;;;6.90;99.90;;;;;;5090445;28;20460;-64
2020/12/02 05:46:47;;;;;;;13.77;12.33;;;6.90;99.90;;;;;;5089438;28;20934;-64
2020/12/02 05:49:49;;;;;;;15.10;13.70;;;6.90;99.90;;;;;;5071864;28;20412;-64
2020/12/02 05:52:35;;;;;;;16.83;14.43;;;6.90;99.90;;;;;;5069288;28;20830;-64
2020/12/02 05:55:23;;;;;;;17.83;14.50;;;6.90;99.90;;;;;;5070181;28;20392;-64
2020/12/02 06:00:47;;;;;;;18.17;15.33;;;6.90;99.90;;;;;;5110831;27;20850;-65
2020/12/02 06:03:16;;;;;;;16.77;14.93;;;6.90;99.90;;;;;;5110926;28;20394;-65
2020/12/02 06:05:41;;;;;;;19.10;14.77;;;6.90;99.90;;;;;;5095277;28;20542;-65
2020/12/02 06:08:10;;;;;;;15.23;13.50;;;6.90;99.90;;;;;;5090456;28;20384;-65
2020/12/02 06:13:40;;;;;;;17.27;15.40;;;6.90;99.90;;;;;;5131457;27;20918;-64
2020/12/02 06:16:06;;;;;;;18.83;14.90;;;6.90;99.90;;;;;;5130446;28;20472;-64
2020/12/02 06:18:34;;;;;;;15.53;13.97;;;6.90;99.90;;;;;;5131870;27;20428;-64
2020/12/02 06:21:00;;;;;;;19.03;13.93;;;6.90;99.90;;;;;;5116318;27;20220;-64
2020/12/02 06:23:39;;;;;;;18.37;15.47;;;6.90;99.90;;;;;;5131177;28;20401;-64
2020/12/02 06:26:05;;;;;;;15.70;13.97;;;6.90;99.90;;;;;;5131170;27;20241;-64
2020/12/02 06:31:24;;;;;;;22.23;17.13;;;6.90;99.90;;;;;;5131601;27;20506;-64
2020/12/02 06:33:49;;;;;;;17.57;15.67;;;6.90;99.90;;;;;;5131811;27;20474;-64
2020/12/02 06:38:54;;;;;;;18.40;16.40;;;6.90;99.90;;;;;;5103364;27;21027;-65
2020/12/02 06:44:01;;;;;;;18.30;16.00;;;6.90;99.90;;;;;;5113040;27;20913;-65
2020/12/02 06:49:18;;;;;;;20.77;17.17;;;7.00;99.90;;;;;;5131602;27;20518;-65
2020/12/02 06:52:02;;;;;;;17.27;14.70;;;7.00;99.90;;;;;;5131491;28;20757;-64
2020/12/02 06:54:30;;;;;;;21.53;16.23;;;6.90;99.90;;;;;;5131316;28;20168;-65
2020/12/02 06:57:02;;;;;;;17.60;15.70;;;7.00;99.90;;;;;;5129964;28;20489;-65
2020/12/02 06:59:27;;;;;;;20.00;17.33;;;6.90;99.90;;;;;;5131327;28;20393;-65
2020/12/02 07:02:03;;;;;;;18.17;14.80;;;6.90;99.90;;;;;;5131352;28;20474;-65
2020/12/02 07:04:35;;;;;;;19.10;16.67;;;6.90;99.90;;;;;;5129948;28;20164;-65
2020/12/02 07:07:00;;;;;;;16.73;14.80;;;6.90;99.90;;;;;;5129711;28;20477;-65
2020/12/02 07:09:26;;;;;;;22.30;18.07;;;6.90;99.90;;;;;;5131074;28;20481;-65
2020/12/02 07:11:57;;;;;;;19.43;15.27;;;7.00;99.90;;;;;;5130812;28;20260;-65
2020/12/02 07:14:31;;;;;;;18.23;14.93;;;7.00;99.90;;;;;;5130572;28;20550;-65
2020/12/02 07:17:03;;;;;;;20.13;16.37;;;7.00;99.90;;;;;;5131146;28;20382;-65
2020/12/02 07:19:33;;;;;;;19.10;16.87;;;7.00;99.90;;;;;;5129484;28;20394;-65
2020/12/02 07:22:05;;;;;;;21.87;17.30;;;7.00;99.90;;;;;;5110460;28;20388;-65
2020/12/02 07:24:49;;;;;;;21.90;18.40;;;7.00;99.90;;;;;;5109108;28;20827;-65
2020/12/02 07:27:17;;;;;;;23.97;18.60;;;7.00;99.90;;;;;;5109050;28;20442;-65
2020/12/02 07:29:43;;;;;;;20.87;17.67;;;7.00;99.90;;;;;;5110050;28;20847;-65
2020/12/02 07:32:15;;;;;;;22.93;18.67;;;7.00;99.90;;;;;;5110382;28;20417;-65
2020/12/02 07:34:41;;;;;;;23.30;18.43;;;7.00;99.90;;;;;;5109689;28;20145;-65
2020/12/02 07:37:11;;;;;;;19.77;16.03;;;7.00;99.90;;;;;;5106916;28;20931;-65
2020/12/02 07:42:39;;;;;;;23.17;18.67;;;7.10;99.90;;;;;;5101705;27;20519;-64
2020/12/02 07:48:04;;;;;;;23.00;17.03;;;7.10;99.90;;;;;;5113395;27;20606;-66
2020/12/02 07:55:47;;;;;;;16.50;13.33;;;7.00;99.90;;;;;;5110269;27;20514;-65
2020/12/02 08:01:15;;;;;;;15.17;12.20;;;7.10;99.90;;;;;;5088442;27;20519;-66
2020/12/02 08:03:41;;;;;;;15.77;13.40;;;7.00;99.90;;;;;;5099584;28;20458;-66
2020/12/02 08:11:21;;;;;;;16.23;14.13;;;7.00;99.90;;;;;;5108219;27;20522;-64
2020/12/02 08:13:53;;;;;;;18.20;14.33;;;7.10;99.90;;;;;;5109414;28;20487;-64
2020/12/02 08:16:41;;;;;;;18.83;13.87;;;7.10;99.90;;;;;;5108786;28;20551;-64
2020/12/02 08:19:09;;;;;;;18.87;14.97;;;7.10;99.90;;;;;;5107670;28;20385;-64
2020/12/02 08:21:35;;;;;;;18.40;12.93;;;7.10;99.90;;;;;;5081040;28;20466;-64
2020/12/02 08:26:43;;;;;;;16.17;13.10;;;7.10;99.90;;;;;;5129527;27;20573;-65
2020/12/02 08:29:10;;;;;;;17.07;13.67;;;7.10;99.90;;;;;;5129688;28;20491;-65
2020/12/02 08:31:37;;;;;;;16.47;12.60;;;7.10;99.90;;;;;;5129681;27;20410;-65
2020/12/02 08:36:49;;;;;;;15.70;12.60;;;7.00;99.90;;;;;;5108922;27;20510;-64
2020/12/02 08:39:28;;;;;;;15.83;13.57;;;6.90;99.90;;;;;;5089474;28;20411;-64
2020/12/02 08:41:54;;;;;;;16.27;12.80;;;7.00;99.90;;;;;;5100121;28;20908;-64
2020/12/02 08:44:20;;;;;;;16.23;13.40;;;7.00;99.90;;;;;;5088460;28;20447;-64
2020/12/02 08:47:07;;;;;;;14.97;12.50;;;7.00;99.90;;;;;;5088622;28;20246;-64
2020/12/02 08:49:35;;;;;;;17.97;13.93;;;7.10;99.90;;;;;;5087107;28;20151;-64
2020/12/02 08:52:01;;;;;;;19.07;14.77;;;7.10;99.90;;;;;;5088226;28;20399;-65
2020/12/02 08:54:27;;;;;;;19.67;15.67;;;7.10;99.90;;;;;;5091896;28;20970;-64
2020/12/02 08:57:02;;;;;;;16.37;14.53;;;7.10;99.90;;;;;;5108731;28;20385;-64
2020/12/02 08:59:28;;;;;;;17.37;14.10;;;7.00;99.90;;;;;;5108491;28;20518;-65
2020/12/02 09:02:04;;;;;;;24.30;16.00;;;7.00;99.90;;;;;;5108162;28;20384;-65
2020/12/02 09:04:29;;;;;;;10.17;9.07;;;6.90;99.90;;;;;;5106694;28;20165;-65
2020/12/02 09:06:55;;;;;;;7.20;6.40;;;6.80;99.90;;;;;;5108048;28;20496;-65
2020/12/02 09:09:20;;;;;;;8.20;7.30;;;6.80;99.90;;;;;;5108449;28;20151;-66
2020/12/02 09:11:46;;;;;;;5.63;5.10;;;6.70;99.90;;;;;;5107665;28;20635;-65
2020/12/02 09:14:12;;;;;;;5.57;5.07;;;6.70;99.90;;;;;;5107410;28;20297;-65
2020/12/02 09:16:39;;;;;;;5.40;4.90;;;6.60;99.90;;;;;;5107720;28;20596;-65
2020/12/02 09:19:09;;;;;;;5.97;5.47;;;6.50;99.90;;;;;;5108237;28;20174;-65
2020/12/02 09:21:34;;;;;;;5.13;4.63;;;6.40;99.90;;;;;;5107755;28;20524;-65
2020/12/02 09:24:00;;;;;;;6.20;5.60;;;6.40;99.90;;;;;;5107906;28;20866;-64
2020/12/02 09:26:30;;;;;;;5.90;5.20;;;6.30;99.90;;;;;;5106878;28;20571;-65
2020/12/02 09:28:56;;;;;;;5.83;5.30;;;6.30;99.90;;;;;;5098323;28;20491;-65
2020/12/02 09:31:23;;;;;;;5.57;5.03;;;6.30;99.90;;;;;;5087146;28;20518;-65
2020/12/02 09:33:51;;;;;;;5.33;4.83;;;6.30;99.90;;;;;;5093422;28;20420;-65
2020/12/02 09:36:18;;;;;;;6.30;5.70;;;6.30;99.90;;;;;;5092498;28;20471;-65
2020/12/02 09:38:46;;;;;;;7.70;5.80;;;6.40;99.90;;;;;;5103191;28;20405;-65
2020/12/02 09:41:31;;;;;;;7.50;6.80;;;6.40;99.90;;;;;;5106334;28;20499;-65
2020/12/02 09:46:34;;;;;;;7.60;6.80;;;6.40;99.90;;;;;;5095476;27;21028;-65
2020/12/02 09:48:59;;;;;;;8.37;7.50;;;6.40;99.90;;;;;;5087921;28;20924;-65
2020/12/02 09:51:29;;;;;;;7.30;6.60;;;6.40;99.90;;;;;;5088077;28;20382;-65
2020/12/02 09:53:55;;;;;;;6.87;6.27;;;6.40;99.90;;;;;;5086026;28;20447;-65
2020/12/02 09:56:21;;;;;;;7.93;7.23;;;6.50;99.90;;;;;;5088170;28;20808;-65
2020/12/02 09:58:47;;;;;;;7.70;7.00;;;6.50;99.90;;;;;;5088274;28;20393;-65
2020/12/02 10:01:22;;;;;;;7.93;7.17;;;6.50;99.90;;;;;;5088552;28;20167;-65
2020/12/02 10:04:19;;;;;;;7.60;6.90;;;6.50;99.90;;;;;;5088082;28;20206;-65
2020/12/02 10:06:55;;;;;;;7.37;6.73;;;6.50;99.90;;;;;;5087150;28;20862;-65
2020/12/02 10:20:04;;;;;;;7.13;6.47;;;6.50;99.90;;;;;;5108011;27;20517;-64
2020/12/02 10:25:33;;;;;;;7.63;6.93;;;6.50;99.90;;;;;;5108762;27;20519;-64
2020/12/02 10:30:39;;;;;;;7.50;6.80;;;6.50;99.90;;;;;;5129290;27;20508;-64
2020/12/02 10:35:48;;;;;;;6.53;6.00;;;6.50;99.90;;;;;;5130072;27;20513;-65
2020/12/02 10:38:27;;;;;;;7.00;6.30;;;6.50;99.90;;;;;;5110442;28;20428;-65
2020/12/02 10:41:03;;;;;;;8.13;6.63;;;6.50;99.90;;;;;;5109316;28;20419;-65
2020/12/02 10:43:42;;;;;;;6.80;6.20;;;6.50;99.90;;;;;;5109412;28;20499;-65
2020/12/02 10:46:21;;;;;;;6.67;6.07;;;6.50;99.90;;;;;;5109622;28;20441;-65
2020/12/02 10:49:11;;;;;;;7.60;6.90;;;6.50;99.90;;;;;;5109266;28;20464;-65
2020/12/02 10:51:39;;;;;;;6.60;6.00;;;6.60;99.90;;;;;;5107460;28;20772;-65
2020/12/02 10:54:13;;;;;;;11.83;10.50;;;6.60;99.90;;;;;;5117437;28;20459;-65
2020/12/02 10:56:42;;;;;;;7.77;7.03;;;6.60;99.90;;;;;;5129439;27;20472;-65
2020/12/02 10:59:12;;;;;;;7.40;6.70;;;6.70;99.90;;;;;;5128814;28;20396;-65
2020/12/02 11:01:40;;;;;;;7.33;6.70;;;6.70;99.90;;;;;;5129010;28;20426;-65
2020/12/02 11:04:06;;;;;;;8.00;7.20;;;6.60;99.90;;;;;;5127680;28;20400;-65
2020/12/02 11:06:54;;;;;;;7.23;6.53;;;6.60;99.90;;;;;;5127771;28;20415;-65
2020/12/02 11:09:35;;;;;;;7.77;7.07;;;6.60;99.90;;;;;;5129561;28;20388;-65
2020/12/02 11:17:43;;;;;;;8.57;7.80;;;6.60;99.90;;;;;;5113232;27;20569;-65
2020/12/02 11:28:42;;;;;;;10.83;9.83;;;6.30;99.90;;;;;;5095682;27;20522;-65
2020/12/02 11:31:29;;;;;;;10.73;9.70;;;6.40;99.90;;;;;;5088543;28;20386;-65
2020/12/02 11:34:10;;;;;;;9.37;8.57;;;6.30;99.90;;;;;;5089908;28;20879;-65
2020/12/02 11:36:59;;;;;;;10.03;9.03;;;6.40;99.90;;;;;;5087454;28;20443;-65
2020/12/02 11:40:04;;;;;;;9.20;8.30;;;6.40;99.90;;;;;;5087095;28;20825;-65
2020/12/02 11:42:40;;;;;;;9.43;8.63;;;6.40;99.90;;;;;;5065254;28;20414;-65
2020/12/02 11:47:59;;;;;;;9.67;8.77;;;6.50;99.90;;;;;;5129883;27;20567;-66
2020/12/02 11:50:32;;;;;;;10.27;9.20;;;6.50;99.90;;;;;;5130932;28;20387;-65
2020/12/02 11:53:22;;;;;;;12.57;9.70;;;6.50;99.90;;;;;;5128244;28;20442;-65
2020/12/02 11:55:48;;;;;;;10.97;9.87;;;6.50;99.90;;;;;;5128481;28;20388;-65
2020/12/02 11:58:16;;;;;;;9.63;8.63;;;6.50;99.90;;;;;;5130581;28;20375;-65
2020/12/02 12:00:41;;;;;;;9.33;8.40;;;6.50;99.90;;;;;;5131126;28;20154;-65
2020/12/02 12:03:30;;;;;;;9.20;8.40;;;6.40;99.90;;;;;;5112508;28;20411;-65
2020/12/02 12:06:02;;;;;;;10.23;9.23;;;6.40;99.90;;;;;;5107708;28;20191;-65
2020/12/02 12:08:53;;;;;;;11.30;8.90;;;6.40;99.90;;;;;;5108810;28;20384;-65
2020/12/02 12:11:27;;;;;;;10.53;9.50;;;6.50;99.90;;;;;;5121407;28;20503;-65
2020/12/02 12:22:08;;;;;;;9.93;9.03;;;6.70;99.90;;;;;;5099865;27;20525;-66
2020/12/02 12:24:34;;;;;;;9.60;8.40;;;6.70;99.90;;;;;;5088839;28;20465;-66
2020/12/02 12:26:59;;;;;;;8.80;8.00;;;6.70;99.90;;;;;;5090037;28;20437;-66
2020/12/02 12:29:25;;;;;;;9.90;9.10;;;6.70;99.90;;;;;;5089761;28;20528;-66
2020/12/02 12:31:59;;;;;;;9.60;8.70;;;6.70;99.90;;;;;;5089075;28;20170;-66
2020/12/02 12:43:01;;;;;;;10.07;9.17;;;6.80;99.90;;;;;;5076915;27;20522;-65
2020/12/02 12:45:33;;;;;;;10.20;9.30;;;6.70;99.90;;;;;;5068628;28;20415;-65
2020/12/02 12:48:00;;;;;;;10.10;9.20;;;6.70;99.90;;;;;;5068649;28;20734;-65
2020/12/02 12:50:26;;;;;;;10.60;9.60;;;6.70;99.90;;;;;;5068480;28;20422;-65
2020/12/02 12:52:52;;;;;;;10.30;9.17;;;6.70;99.90;;;;;;5069242;28;20453;-65
2020/12/02 12:55:18;;;;;;;9.90;9.00;;;6.70;99.90;;;;;;5093061;28;20808;-65
2020/12/02 12:57:49;;;;;;;10.63;9.73;;;6.60;99.90;;;;;;5109845;28;20771;-65
2020/12/02 13:00:16;;;;;;;9.67;8.83;;;6.60;99.90;;;;;;5090466;28;20412;-65
2020/12/02 13:02:42;;;;;;;11.90;10.73;;;6.60;99.90;;;;;;5109519;28;20449;-65
2020/12/02 13:05:12;;;;;;;10.27;9.27;;;6.60;99.90;;;;;;5108117;28;20399;-65
2020/12/02 13:07:43;;;;;;;10.43;9.53;;;6.60;99.90;;;;;;5108992;28;20408;-64
2020/12/02 13:13:21;;;;;;;10.33;9.43;;;6.60;99.90;;;;;;5130299;27;21079;-65
2020/12/02 13:19:22;;;;;;;10.57;9.60;;;6.70;99.90;;;;;;5110795;27;20511;-65
2020/12/02 13:21:55;;;;;;;11.77;10.67;;;6.70;99.90;;;;;;5089045;28;20389;-65
2020/12/02 13:24:48;;;;;;;10.97;9.97;;;6.70;99.90;;;;;;5088827;28;20400;-65
2020/12/02 13:29:59;;;;;;;10.93;10.00;;;6.70;99.90;;;;;;5110497;27;20505;-64
2020/12/02 13:32:34;;;;;;;9.70;8.80;;;6.70;99.90;;;;;;5110372;28;20390;-64
2020/12/02 13:35:00;;;;;;;9.93;9.03;;;6.70;99.90;;;;;;5110601;28;20414;-64
2020/12/02 13:37:26;;;;;;;12.03;10.93;;;6.70;99.90;;;;;;5110290;28;20414;-64
2020/12/02 13:39:51;;;;;;;10.40;9.50;;;6.70;99.90;;;;;;5110618;28;20158;-64
2020/12/02 13:42:17;;;;;;;9.93;9.13;;;6.70;99.90;;;;;;5109799;28;20200;-65
2020/12/02 13:47:19;;;;;;;10.20;9.30;;;6.70;99.90;;;;;;5110363;27;20570;-65
2020/12/02 13:49:44;;;;;;;10.53;9.63;;;6.60;99.90;;;;;;5110880;28;20746;-65
2020/12/02 14:03:28;;;;;;;10.80;9.93;;;6.60;99.90;;;;;;5090405;27;20532;-65
2020/12/02 14:06:05;;;;;;;10.23;9.30;;;6.50;99.90;;;;;;5089408;28;20808;-65
2020/12/02 14:08:31;;;;;;;10.37;9.47;;;6.50;99.90;;;;;;5090010;28;20385;-65
2020/12/02 14:11:01;;;;;;;10.97;10.07;;;6.50;99.90;;;;;;5084216;28;20460;-65
2020/12/02 14:13:27;;;;;;;9.80;8.97;;;6.50;99.90;;;;;;5087320;28;20412;-65
2020/12/02 14:15:53;;;;;;;10.23;9.37;;;6.50;99.90;;;;;;5088021;28;20381;-65
2020/12/02 14:18:19;;;;;;;10.07;9.23;;;6.50;99.90;;;;;;5078105;28;20418;-65
2020/12/02 14:20:45;;;;;;;10.00;9.20;;;6.50;99.90;;;;;;5069671;28;20248;-64
2020/12/02 14:23:16;;;;;;;12.23;11.13;;;6.50;99.90;;;;;;5070152;28;20764;-64
2020/12/02 14:25:42;;;;;;;10.53;9.73;;;6.40;99.90;;;;;;5068335;28;20152;-65
2020/12/02 14:28:12;;;;;;;11.37;10.37;;;6.40;99.90;;;;;;5068688;28;20428;-65
2020/12/02 14:30:38;;;;;;;11.33;10.30;;;6.40;99.90;;;;;;5069819;28;20566;-65
2020/12/02 14:33:09;;;;;;;11.40;10.40;;;6.40;99.90;;;;;;5069468;28;20437;-65
2020/12/02 14:35:37;;;;;;;12.63;11.40;;;6.40;99.90;;;;;;5069373;28;20535;-65
2020/12/02 14:38:14;;;;;;;12.00;10.90;;;6.30;99.90;;;;;;5068867;28;20828;-65
2020/12/02 14:40:41;;;;;;;10.90;9.90;;;6.30;99.90;;;;;;5069186;28;20426;-65
2020/12/02 14:43:15;;;;;;;10.23;9.33;;;6.30;99.90;;;;;;5080683;28;20425;-65
2020/12/02 14:45:41;;;;;;;10.10;9.20;;;6.20;99.90;;;;;;5096085;28;20432;-65
2020/12/02 14:48:07;;;;;;;9.73;8.73;;;6.20;99.90;;;;;;5109982;28;20396;-65
2020/12/02 14:50:32;;;;;;;10.00;9.10;;;6.20;99.90;;;;;;5109783;28;20762;-64
2020/12/02 14:52:58;;;;;;;9.50;8.70;;;6.20;99.90;;;;;;5075519;28;20175;-64
2020/12/02 14:55:24;;;;;;;9.53;8.73;;;6.10;99.90;;;;;;5069021;28;20156;-64
2020/12/02 15:00:34;;;;;;;10.80;9.80;;;6.10;99.90;;;;;;5131266;27;20537;-65
2020/12/02 15:03:00;;;;;;;10.50;9.60;;;6.10;99.90;;;;;;5130190;28;20391;-65
2020/12/02 15:05:30;;;;;;;11.53;9.80;;;6.10;99.90;;;;;;5129892;28;20394;-65
2020/12/02 15:08:32;;;;;;;9.83;9.03;;;6.10;99.90;;;;;;5131033;28;20432;-65
2020/12/02 15:10:59;;;;;;;9.63;8.83;;;6.10;99.90;;;;;;5110578;28;20400;-65
2020/12/02 15:13:25;;;;;;;10.47;9.57;;;6.10;99.90;;;;;;5124089;28;20408;-65
2020/12/02 15:15:52;;;;;;;10.50;9.53;;;6.10;99.90;;;;;;5131497;28;20534;-65
2020/12/02 15:18:19;;;;;;;10.23;9.33;;;6.10;99.90;;;;;;5131257;28;20391;-65
2020/12/02 15:23:29;;;;;;;9.97;9.10;;;6.10;99.90;;;;;;5131256;27;20557;-65
2020/12/02 15:25:55;;;;;;;10.50;9.60;;;6.10;99.90;;;;;;5122218;28;20411;-64